This is the latest recevied weather packets stored in our database for station/object K8ZAS. If no packets are shown the sender has not sent any weather packets the latest 10 day(s).
| Time | Temp. | Humidity | Pressure | Rain* | Wind** | Luminosity | Snow |
|---|---|---|---|---|---|---|---|
| 1777697718 | 7.22° C | 45% | 1019.9 hPa | 0 mm | - | 0 W/m² | - |
| 1777697118 | 7.22° C | 45% | 1019.9 hPa | 0 mm | - | 0 W/m² | - |
| 1777691116 | 12.22° C | 26% | 1018.6 hPa | 0 mm | - | 0 W/m² | - |
| 1777689920 | 12.78° C | 25% | 1018.2 hPa | 0 mm | - | 0 W/m² | - |
| 1777685718 | 16.67° C | 18% | 1017.6 hPa | 0 mm | - | 38 W/m² | - |
| 1777682116 | 17.78° C | 17% | 1017.4 hPa | 0 mm | - | 89 W/m² | - |
| 1777681520 | 17.78° C | 17% | 1017.4 hPa | 0 mm | - | 109 W/m² | - |
| 1777680317 | 18.33° C | 17% | 1017.4 hPa | 0 mm | - | 293 W/m² | - |
| 1777679117 | 18.33° C | 18% | 1017.4 hPa | 0 mm | - | 402 W/m² | - |
| 1777667718 | 16.67° C | 22% | 1018.8 hPa | 0 mm | - | 929 W/m² | - |
| 1777664719 | 16.11° C | 23% | 1019.1 hPa | 0 mm | - | 984 W/m² | - |
| 1777662316 | 15.56° C | 23% | 1019.2 hPa | 0 mm | - | 994 W/m² | - |
| 1777660520 | 16.11° C | 24% | 1019.3 hPa | 0 mm | - | 980 W/m² | - |
| 1777659054 | - | - | - | 0 mm | - | - | - |
| 1777648818 | 7.22° C | 49% | 1021.1 hPa | 0 mm | - | 560 W/m² | - |
| 1777648218 | 6.67° C | 51% | 1021.2 hPa | 0 mm | - | 526 W/m² | - |
| 1777645219 | 2.78° C | 70% | 1021.8 hPa | 0 mm | - | 242 W/m² | - |
| 1777638628 | -2.22° C | 84% | 1020.2 hPa | 0 mm | - | 19 W/m² | - |
| 1777636828 | -1.67° C | 82% | 1020.3 hPa | 0 mm | - | 1 W/m² | - |
| 1777635029 | -1.11° C | 82% | 1020.5 hPa | 0 mm | - | 0 W/m² | - |
| 1777623017 | -0.56° C | 81% | 1020.1 hPa | 0 mm | - | 0 W/m² | - |
| 1777621218 | 0° C | 79% | 1020.4 hPa | 0 mm | - | 0 W/m² | - |
| 1777619417 | 0.56° C | 75% | 1020.7 hPa | 0 mm | - | 0 W/m² | - |
| 1777617058 | 1.11° C | 74% | 1020.8 hPa | 0 mm | - | 0 W/m² | - |
| 1777612819 | 1.67° C | 63% | 1020.8 hPa | 0 mm | - | 0 W/m² | - |
* Rain latest hour (hover to see other rain measurements)
** Current wind speed in m/s (hover to see current wind gust speed)